Weather at Singkawang Airport

Public forecast

Using degrees Celsius for public forecast. Weather courtesy of forecast.io.

Closest aviation weather report (METAR) to Singkawang Airport

Closest report is Kuching International Airport, 46.9 nm (86.9 km) ENE.

2024/05/27 21:00 (retrieved 28 minutes ago)

WBGG 272100Z 00000KT 9999 SCT020 26/25 Q1009 NOSIG

Closest aviation forecast (TAF) to Singkawang Airport

Closest forecast is Kuching International Airport, 46.9 nm (86.9 km) ENE.

2024/05/27 18:09 (retrieved 3 hours ago)

TAF WBGG 271700Z 2718/2818 26005KT 9999 FEW020 TEMPO 2722/2801 6000 -RA FEW003 TEMPO 2807/2810 5000 TSRA FEW015CB